Terminal Aerodrome Forecast
Issued by NWS Huntsville, AL

Home | Current Version | Previous Version | Text Only | Print | Product List | Glossary On
Versions: 1 2 3 4 5 6 7 8 9 10 11 12 13 14 15
000
FTUS44 KHUN 190857 AAA
TAFMSL
TAF AMD
KMSL 190857Z 1909/2006 12005KT P6SM BKN250
      TEMPO 1909/1913 BKN005
     FM191600 16010G20KT P6SM BKN025
     FM191900 19011G20KT P6SM SCT035
     FM200100 16008KT P6SM BKN035=

USA.gov is the U.S. government's official web portal to all federal, state and local government web resources and services.